Time;durP1;ratioP1;P1;durP2;ratioP2;P2;SDS_P1;SDS_P2;PMS_P1;PMS_P2;Temp;Humidity;BMP_temperature;BMP_pressure;BME280_temperature;BME280_humidity;BME280_pressure;Samples;Min_cycle;Max_cycle;Signal;HPM_P1;HPM_P2
2021/07/21 00:00:26;;;;;;;20.43;12.83;;;17.10;99.90;;;;;;5067294;28;20184;-67
2021/07/21 00:02:55;;;;;;;22.13;12.57;;;17.00;99.90;;;;;;5068693;28;20194;-67
2021/07/21 00:05:25;;;;;;;22.47;12.73;;;17.00;99.90;;;;;;5064957;28;20188;-68
2021/07/21 00:07:54;;;;;;;25.73;13.83;;;16.90;99.90;;;;;;5068161;28;20659;-67
2021/07/21 00:10:24;;;;;;;21.63;13.00;;;16.90;99.90;;;;;;5067907;28;20570;-67
2021/07/21 00:15:50;;;;;;;26.77;14.20;;;17.00;99.90;;;;;;5061680;28;20189;-67
2021/07/21 00:18:21;;;;;;;24.67;13.03;;;16.90;99.90;;;;;;5064053;28;20187;-67
2021/07/21 00:20:49;;;;;;;20.63;13.23;;;16.90;99.90;;;;;;5066333;28;20204;-67
2021/07/21 00:23:17;;;;;;;22.73;13.97;;;16.90;99.90;;;;;;5064994;28;20189;-67
2021/07/21 00:25:46;;;;;;;26.67;15.27;;;16.80;99.90;;;;;;5067631;28;20672;-67
2021/07/21 00:28:16;;;;;;;21.70;13.33;;;16.80;99.90;;;;;;5066252;28;20201;-67
2021/07/21 00:30:44;;;;;;;24.40;13.47;;;16.80;99.90;;;;;;5067217;28;20602;-67
2021/07/21 00:33:13;;;;;;;24.23;13.27;;;16.70;99.90;;;;;;5048745;28;20241;-67
2021/07/21 00:35:42;;;;;;;20.63;13.03;;;16.70;99.90;;;;;;5067221;28;20475;-67
2021/07/21 00:38:10;;;;;;;25.70;13.30;;;16.60;99.90;;;;;;5067339;28;20284;-67
2021/07/21 00:40:38;;;;;;;24.27;14.27;;;16.60;99.90;;;;;;5067250;28;20201;-67
2021/07/21 00:43:07;;;;;;;25.70;13.43;;;16.50;99.90;;;;;;5067144;28;20199;-67
2021/07/21 00:45:37;;;;;;;29.67;14.67;;;16.50;99.90;;;;;;5062853;28;20188;-67
2021/07/21 00:48:05;;;;;;;22.77;13.93;;;16.50;99.90;;;;;;5068246;28;20197;-67
2021/07/21 00:50:36;;;;;;;21.30;12.87;;;16.40;99.90;;;;;;5068668;28;20563;-67
2021/07/21 00:53:04;;;;;;;26.40;14.47;;;16.30;99.90;;;;;;5067732;28;20210;-67
2021/07/21 00:55:33;;;;;;;25.10;13.63;;;16.30;99.90;;;;;;5066730;28;20219;-67
2021/07/21 00:58:01;;;;;;;21.87;12.97;;;16.20;99.90;;;;;;5064448;28;20282;-67
2021/07/21 01:00:30;;;;;;;22.53;13.70;;;16.20;99.90;;;;;;5065697;28;20235;-67
2021/07/21 01:02:59;;;;;;;25.50;13.87;;;16.20;99.90;;;;;;5063015;28;20712;-67
2021/07/21 01:05:30;;;;;;;24.43;13.97;;;16.10;99.90;;;;;;5064293;28;20193;-67
2021/07/21 01:07:59;;;;;;;24.83;13.77;;;16.10;99.90;;;;;;5065037;28;20782;-67
2021/07/21 01:10:28;;;;;;;21.80;13.10;;;16.00;99.90;;;;;;5067461;28;20199;-67
2021/07/21 01:13:02;;;;;;;23.33;14.43;;;16.00;99.90;;;;;;5064540;28;21089;-67
2021/07/21 01:15:40;;;;;;;23.97;14.13;;;16.00;99.90;;;;;;5067010;28;20855;-67
2021/07/21 01:18:15;;;;;;;23.00;13.33;;;15.90;99.90;;;;;;5067366;28;20269;-67
2021/07/21 01:21:02;;;;;;;27.20;15.10;;;15.90;99.90;;;;;;5064794;28;20626;-67
2021/07/21 01:23:50;;;;;;;27.93;14.90;;;15.90;99.90;;;;;;5065860;28;20226;-67
2021/07/21 01:26:23;;;;;;;25.87;15.40;;;16.00;99.90;;;;;;5064696;28;20219;-67
2021/07/21 01:28:55;;;;;;;29.70;15.17;;;16.00;99.90;;;;;;5063585;28;20228;-67
2021/07/21 01:31:28;;;;;;;23.87;14.40;;;15.90;99.90;;;;;;5036558;28;20208;-67
2021/07/21 01:33:58;;;;;;;27.60;14.23;;;15.90;99.90;;;;;;5065047;28;20200;-66
2021/07/21 01:36:30;;;;;;;25.60;14.27;;;15.90;99.90;;;;;;5065557;28;20282;-67
2021/07/21 01:39:04;;;;;;;24.87;14.53;;;15.80;99.90;;;;;;5062332;28;20204;-67
2021/07/21 01:41:36;;;;;;;24.93;14.23;;;15.80;99.90;;;;;;5065908;28;20677;-67
2021/07/21 01:44:10;;;;;;;27.43;14.07;;;15.70;99.90;;;;;;5065480;28;20826;-67
2021/07/21 01:46:39;;;;;;;25.13;14.40;;;15.70;99.90;;;;;;5065951;28;20193;-67
2021/07/21 01:49:09;;;;;;;28.03;14.10;;;15.70;99.90;;;;;;5061937;28;20194;-67
2021/07/21 01:51:38;;;;;;;26.07;14.43;;;15.60;99.90;;;;;;5065397;28;20204;-67
2021/07/21 01:54:09;;;;;;;21.83;13.77;;;15.60;99.90;;;;;;5065522;28;20648;-67
2021/07/21 01:56:38;;;;;;;24.13;14.23;;;15.60;99.90;;;;;;5066691;28;20192;-67
2021/07/21 01:59:09;;;;;;;26.73;14.07;;;15.60;99.90;;;;;;5061884;28;21188;-67
2021/07/21 02:01:39;;;;;;;24.07;13.67;;;15.60;99.90;;;;;;5062835;28;20196;-67
2021/07/21 02:04:08;;;;;;;23.23;13.33;;;15.60;99.90;;;;;;5064598;28;20533;-67
2021/07/21 02:06:37;;;;;;;23.70;13.43;;;15.50;99.90;;;;;;5065899;28;20200;-67
2021/07/21 02:09:07;;;;;;;22.37;12.93;;;15.50;99.90;;;;;;5063760;28;20196;-67
2021/07/21 02:11:38;;;;;;;19.63;12.40;;;15.40;99.90;;;;;;5065697;28;20216;-67
2021/07/21 02:14:10;;;;;;;23.80;13.57;;;15.40;99.90;;;;;;5066119;28;20721;-67
2021/07/21 02:16:41;;;;;;;23.63;13.83;;;15.30;99.90;;;;;;5064706;28;20668;-67
2021/07/21 02:19:10;;;;;;;28.37;15.37;;;15.30;99.90;;;;;;5064314;28;20299;-67
2021/07/21 02:21:40;;;;;;;24.13;13.60;;;15.30;99.90;;;;;;5065948;28;20283;-67
2021/07/21 02:24:09;;;;;;;25.13;14.23;;;15.30;99.90;;;;;;5064849;28;20651;-67
2021/07/21 02:26:39;;;;;;;27.30;14.47;;;15.30;99.90;;;;;;5065828;28;20279;-67
2021/07/21 02:29:10;;;;;;;23.80;14.93;;;15.20;99.90;;;;;;5065073;28;20279;-67
2021/07/21 02:31:46;;;;;;;25.90;14.23;;;15.20;99.90;;;;;;5066468;28;20219;-67
2021/07/21 02:34:14;;;;;;;25.43;14.00;;;15.30;99.90;;;;;;5061205;28;20192;-67
2021/07/21 02:36:44;;;;;;;27.53;14.77;;;15.20;99.90;;;;;;5059222;28;20184;-67
2021/07/21 02:39:12;;;;;;;24.40;13.03;;;15.10;99.90;;;;;;5063173;28;20719;-67
2021/07/21 02:41:42;;;;;;;25.03;14.23;;;15.10;99.90;;;;;;5065451;28;20242;-67
2021/07/21 02:44:12;;;;;;;25.43;14.97;;;15.10;99.90;;;;;;5064285;28;20611;-66
2021/07/21 02:46:40;;;;;;;26.83;14.67;;;15.00;99.90;;;;;;5063600;28;20236;-67
2021/07/21 02:49:09;;;;;;;24.13;14.10;;;15.00;99.90;;;;;;5061536;28;20196;-67
2021/07/21 02:51:47;;;;;;;25.40;14.43;;;15.00;99.90;;;;;;5066410;28;20184;-67
2021/07/21 02:54:27;;;;;;;25.83;14.27;;;15.00;99.90;;;;;;5066020;28;20647;-67
2021/07/21 02:56:58;;;;;;;23.07;13.30;;;15.00;99.90;;;;;;5063930;28;20271;-67
2021/07/21 02:59:38;;;;;;;23.40;13.57;;;14.90;99.90;;;;;;5064637;28;20229;-67
2021/07/21 03:02:08;;;;;;;27.60;14.03;;;14.80;99.90;;;;;;5063670;28;20200;-67
2021/07/21 03:04:40;;;;;;;28.90;15.73;;;14.80;99.90;;;;;;5064340;28;20192;-67
2021/07/21 03:07:09;;;;;;;25.93;14.43;;;14.70;99.90;;;;;;5078613;28;20283;-67
2021/07/21 03:09:39;;;;;;;27.90;14.93;;;14.70;99.90;;;;;;5065907;28;20246;-67
2021/07/21 03:12:12;;;;;;;27.83;16.10;;;14.70;99.90;;;;;;5064559;28;20271;-67
2021/07/21 03:14:44;;;;;;;30.73;15.60;;;14.60;99.90;;;;;;5064445;28;20242;-67
2021/07/21 03:17:14;;;;;;;32.90;16.10;;;14.60;99.90;;;;;;5061678;28;20275;-67
2021/07/21 03:19:45;;;;;;;28.20;15.83;;;14.60;99.90;;;;;;5064246;28;20219;-67
2021/07/21 03:22:16;;;;;;;26.23;14.57;;;14.60;99.90;;;;;;5061396;28;20206;-67
2021/07/21 03:24:45;;;;;;;25.30;14.00;;;14.60;99.90;;;;;;5064669;28;20357;-67
2021/07/21 03:27:16;;;;;;;25.67;13.90;;;14.50;99.90;;;;;;5059435;28;20226;-67
2021/07/21 03:29:51;;;;;;;22.10;12.37;;;14.50;99.90;;;;;;5064889;28;20283;-67
2021/07/21 03:32:20;;;;;;;19.90;12.30;;;14.50;99.90;;;;;;5064723;28;20244;-67
2021/07/21 03:34:50;;;;;;;20.27;12.63;;;14.40;99.90;;;;;;5062646;28;20222;-67
2021/07/21 03:37:20;;;;;;;24.77;13.60;;;14.40;99.90;;;;;;5066599;28;20549;-67
2021/07/21 03:39:54;;;;;;;26.23;14.07;;;14.40;99.90;;;;;;5059621;28;20669;-67
2021/07/21 03:42:27;;;;;;;22.73;13.30;;;14.40;99.90;;;;;;5063044;28;20215;-67
2021/07/21 03:45:18;;;;;;;28.87;14.30;;;14.40;99.90;;;;;;5064561;28;20196;-67
2021/07/21 03:47:47;;;;;;;26.57;14.80;;;14.30;99.90;;;;;;5062934;28;20200;-66
2021/07/21 03:50:20;;;;;;;33.07;15.67;;;14.30;99.90;;;;;;5061872;28;20528;-67
2021/07/21 03:52:50;;;;;;;24.93;14.47;;;14.30;99.90;;;;;;5060766;28;20189;-67
2021/07/21 03:55:21;;;;;;;25.30;14.37;;;14.30;99.90;;;;;;5064998;28;20275;-67
2021/07/21 03:57:50;;;;;;;28.90;14.27;;;14.30;99.90;;;;;;5061252;28;20601;-67
2021/07/21 04:00:21;;;;;;;23.70;13.67;;;14.30;99.90;;;;;;5062414;28;20291;-67
2021/07/21 04:02:53;;;;;;;28.87;14.93;;;14.30;99.90;;;;;;5059661;28;20192;-67
2021/07/21 04:05:23;;;;;;;24.00;13.53;;;14.30;99.90;;;;;;5064597;28;20195;-67
2021/07/21 04:07:54;;;;;;;33.57;14.70;;;14.30;99.90;;;;;;5059214;28;20196;-67
2021/07/21 04:10:24;;;;;;;24.67;14.43;;;14.20;99.90;;;;;;5059802;28;20360;-67
2021/07/21 04:12:54;;;;;;;31.33;16.43;;;14.30;99.90;;;;;;5042175;28;20258;-67
2021/07/21 04:15:25;;;;;;;31.77;16.63;;;14.30;99.90;;;;;;5062985;28;20231;-67
2021/07/21 04:17:56;;;;;;;40.73;19.07;;;14.30;99.90;;;;;;5063290;28;20929;-67
2021/07/21 04:20:25;;;;;;;38.27;18.33;;;14.30;99.90;;;;;;5062019;28;20279;-67
2021/07/21 04:22:54;;;;;;;30.43;16.97;;;14.30;99.90;;;;;;5064670;28;20200;-67
2021/07/21 04:25:23;;;;;;;33.47;17.23;;;14.30;99.90;;;;;;5062114;28;20236;-67
2021/07/21 04:27:52;;;;;;;42.07;19.77;;;14.30;99.90;;;;;;5064704;28;20772;-67
2021/07/21 04:30:20;;;;;;;35.50;18.13;;;14.30;99.90;;;;;;5060830;28;20270;-67
2021/07/21 04:32:50;;;;;;;35.43;18.00;;;14.40;99.90;;;;;;5064150;28;20572;-67
2021/07/21 04:35:20;;;;;;;32.57;16.83;;;14.40;99.90;;;;;;5065344;28;20255;-67
2021/07/21 04:37:48;;;;;;;32.87;16.00;;;14.50;99.90;;;;;;5066253;28;20230;-67
2021/07/21 04:40:17;;;;;;;36.27;18.33;;;14.40;99.90;;;;;;5068370;28;21597;-67
2021/07/21 04:42:46;;;;;;;36.90;18.77;;;14.50;99.90;;;;;;5070583;28;20400;-67
2021/07/21 04:45:15;;;;;;;34.93;17.97;;;14.60;99.90;;;;;;5067399;28;20442;-67
2021/07/21 04:47:44;;;;;;;36.10;17.97;;;14.60;99.90;;;;;;5069060;28;20188;-67
2021/07/21 04:50:16;;;;;;;29.60;16.63;;;14.70;99.90;;;;;;5065212;28;20609;-67
2021/07/21 04:52:45;;;;;;;33.40;17.70;;;14.70;99.90;;;;;;5066726;28;20226;-67
2021/07/21 04:55:14;;;;;;;32.27;16.87;;;14.70;99.90;;;;;;5066695;28;20216;-67
2021/07/21 04:57:43;;;;;;;33.70;17.20;;;14.80;99.90;;;;;;5067007;28;20196;-67
2021/07/21 05:00:12;;;;;;;30.37;16.50;;;14.90;99.90;;;;;;5067261;28;20211;-67
2021/07/21 05:02:40;;;;;;;31.67;17.33;;;15.00;99.90;;;;;;5066726;28;20223;-66
2021/07/21 05:05:10;;;;;;;31.83;16.80;;;15.10;99.90;;;;;;5064378;28;20192;-67
2021/07/21 05:07:40;;;;;;;34.63;18.07;;;15.20;99.90;;;;;;5067550;28;20202;-67
2021/07/21 05:10:09;;;;;;;31.80;17.73;;;15.30;99.90;;;;;;5065916;28;20228;-66
2021/07/21 05:12:43;;;;;;;31.30;17.50;;;15.40;99.90;;;;;;5066754;28;20692;-67
2021/07/21 05:15:12;;;;;;;29.67;17.30;;;15.50;99.90;;;;;;5062557;28;21177;-66
2021/07/21 05:17:41;;;;;;;33.27;17.77;;;15.60;99.90;;;;;;5067585;28;20224;-67
2021/07/21 05:20:10;;;;;;;34.77;17.77;;;15.70;99.90;;;;;;5064054;28;20197;-67
2021/07/21 05:22:45;;;;;;;33.13;17.93;;;15.80;99.90;;;;;;5067216;28;20778;-67
2021/07/21 05:25:14;;;;;;;32.73;17.90;;;15.90;99.90;;;;;;5065073;28;20529;-67
2021/07/21 05:27:43;;;;;;;34.67;18.47;;;16.00;99.90;;;;;;5067980;28;20219;-67
2021/07/21 05:30:12;;;;;;;30.53;16.73;;;16.20;99.90;;;;;;5065724;28;20618;-67
2021/07/21 05:32:41;;;;;;;31.63;18.10;;;16.30;99.90;;;;;;5066440;28;20192;-67
2021/07/21 05:35:10;;;;;;;33.17;16.30;;;16.40;99.90;;;;;;5066343;28;20361;-66
2021/07/21 05:37:40;;;;;;;29.07;15.97;;;16.50;99.90;;;;;;5066247;28;20657;-66
2021/07/21 05:40:09;;;;;;;32.63;18.00;;;16.60;99.90;;;;;;5065893;28;20208;-67
2021/07/21 05:42:37;;;;;;;29.07;16.80;;;16.70;99.90;;;;;;5067891;28;20224;-67
2021/07/21 05:45:06;;;;;;;29.93;17.47;;;16.80;99.90;;;;;;5064951;28;20188;-67
2021/07/21 05:47:35;;;;;;;32.43;18.00;;;16.90;99.90;;;;;;5067119;28;20247;-67
2021/07/21 05:50:04;;;;;;;32.13;17.80;;;17.00;99.90;;;;;;5065230;28;20556;-67
2021/07/21 05:52:32;;;;;;;26.03;15.90;;;17.10;99.90;;;;;;5066034;28;20860;-67
2021/07/21 05:55:02;;;;;;;29.97;16.67;;;17.30;99.90;;;;;;5063866;28;20231;-67
2021/07/21 05:57:30;;;;;;;29.83;16.73;;;17.50;99.90;;;;;;5065619;28;20230;-67
2021/07/21 05:59:58;;;;;;;28.53;16.60;;;17.60;99.90;;;;;;5064480;28;20287;-67
2021/07/21 06:02:26;;;;;;;32.90;16.87;;;17.70;99.90;;;;;;5065986;28;20219;-67
2021/07/21 06:04:55;;;;;;;29.43;15.63;;;17.80;99.90;;;;;;5063066;28;20200;-68
2021/07/21 06:07:24;;;;;;;27.47;15.40;;;18.00;99.90;;;;;;5065384;28;20640;-67
2021/07/21 06:09:52;;;;;;;30.10;15.80;;;18.20;99.90;;;;;;5066276;28;20188;-67
2021/07/21 06:12:22;;;;;;;28.97;16.03;;;18.40;99.90;;;;;;5066025;28;20243;-67
2021/07/21 06:14:50;;;;;;;32.10;16.50;;;18.60;99.90;;;;;;5066032;28;20261;-67
2021/07/21 06:17:19;;;;;;;25.97;15.43;;;18.70;99.90;;;;;;5063624;28;20347;-67
2021/07/21 06:19:47;;;;;;;29.23;16.03;;;18.90;99.90;;;;;;5064810;28;20196;-67
2021/07/21 06:22:18;;;;;;;22.53;14.30;;;19.20;99.90;;;;;;5065318;28;20278;-67
2021/07/21 06:24:46;;;;;;;29.70;15.83;;;19.30;99.90;;;;;;5066465;28;20278;-68
2021/07/21 06:27:15;;;;;;;28.47;15.53;;;19.50;99.90;;;;;;5064318;28;20603;-68
2021/07/21 06:29:47;;;;;;;25.63;15.33;;;19.80;99.90;;;;;;5066002;28;20203;-68
2021/07/21 06:32:15;;;;;;;24.00;14.70;;;20.00;99.90;;;;;;5064943;28;20253;-67
2021/07/21 06:34:44;;;;;;;23.30;14.10;;;20.20;99.90;;;;;;5062592;28;20751;-68
2021/07/21 06:37:13;;;;;;;23.27;14.50;;;20.40;99.90;;;;;;5067129;28;20251;-67
2021/07/21 06:39:41;;;;;;;25.43;14.90;;;20.70;99.90;;;;;;5063880;28;20189;-68
2021/07/21 06:42:09;;;;;;;23.43;14.50;;;20.90;99.90;;;;;;5065243;28;20195;-67
2021/07/21 06:44:38;;;;;;;23.43;14.40;;;21.30;99.90;;;;;;5063299;28;20201;-68
2021/07/21 06:47:08;;;;;;;22.23;13.73;;;21.50;99.90;;;;;;5063980;28;20198;-68
2021/07/21 06:49:39;;;;;;;22.80;13.93;;;21.80;99.90;;;;;;5065030;28;20775;-68
2021/07/21 06:52:07;;;;;;;20.43;12.90;;;22.00;99.90;;;;;;5065414;28;20195;-68
2021/07/21 06:54:36;;;;;;;17.87;12.47;;;22.00;99.90;;;;;;5063662;28;20469;-68
2021/07/21 06:57:05;;;;;;;17.03;11.83;;;22.20;99.90;;;;;;5065506;28;20240;-68
2021/07/21 06:59:36;;;;;;;21.33;12.80;;;22.50;99.90;;;;;;5064412;28;20234;-68
2021/07/21 07:02:05;;;;;;;20.80;10.93;;;22.60;99.90;;;;;;5064899;28;20245;-68
2021/07/21 07:04:35;;;;;;;18.57;12.33;;;22.50;99.90;;;;;;5063924;28;20598;-68
2021/07/21 07:07:03;;;;;;;16.53;9.83;;;22.80;99.90;;;;;;5065482;28;20283;-68
2021/07/21 07:09:32;;;;;;;13.30;9.77;;;23.00;99.90;;;;;;5064404;28;20228;-68
2021/07/21 07:12:00;;;;;;;16.30;10.53;;;23.40;99.90;;;;;;5063505;28;20192;-68
2021/07/21 07:14:28;;;;;;;16.42;11.05;;;23.60;99.90;;;;;;5062538;28;20189;-68
2021/07/21 07:16:57;;;;;;;14.23;9.85;;;24.10;99.90;;;;;;5064725;28;20659;-67
2021/07/21 07:19:25;;;;;;;13.48;10.02;;;23.80;99.90;;;;;;5066013;28;20322;-68
2021/07/21 07:21:55;;;;;;;12.77;9.70;;;24.10;99.90;;;;;;5062447;28;20706;-69
2021/07/21 07:24:23;;;;;;;12.38;9.27;;;24.30;99.90;;;;;;5060043;28;20292;-66
2021/07/21 07:26:51;;;;;;;11.60;9.13;;;24.70;99.90;;;;;;5060270;28;20234;-66
2021/07/21 07:29:20;;;;;;;10.98;8.98;;;25.00;99.90;;;;;;5064937;28;20221;-66
2021/07/21 07:31:48;;;;;;;12.02;9.18;;;25.40;99.90;;;;;;5065782;28;20188;-67
2021/07/21 07:34:16;;;;;;;16.35;10.05;;;25.70;99.90;;;;;;5064355;28;20253;-66
2021/07/21 07:36:45;;;;;;;13.77;9.00;;;25.70;99.90;;;;;;5063934;28;20228;-66
2021/07/21 07:39:15;;;;;;;12.50;9.27;;;26.00;99.90;;;;;;5060966;28;20744;-66
2021/07/21 07:41:44;;;;;;;12.52;8.90;;;26.40;99.90;;;;;;5065303;28;20267;-66
2021/07/21 07:44:12;;;;;;;12.48;8.73;;;26.80;99.90;;;;;;5059875;28;20255;-65
2021/07/21 07:46:41;;;;;;;9.48;7.75;;;27.10;99.90;;;;;;5064327;28;20192;-66
2021/07/21 07:49:10;;;;;;;9.88;8.30;;;27.50;99.90;;;;;;5057227;28;20367;-67
2021/07/21 07:51:38;;;;;;;13.70;8.73;;;28.00;99.90;;;;;;5065250;28;20188;-66
2021/07/21 07:54:07;;;;;;;12.80;9.75;;;28.20;99.90;;;;;;5062738;28;20645;-67
2021/07/21 07:56:36;;;;;;;14.25;7.60;;;28.40;99.90;;;;;;5064023;28;20245;-66
2021/07/21 07:59:05;;;;;;;7.95;7.13;;;28.60;99.90;;;;;;5061665;28;20402;-67
2021/07/21 08:01:34;;;;;;;10.45;7.72;;;29.00;99.90;;;;;;5060186;28;20281;-67
2021/07/21 08:04:03;;;;;;;11.10;7.70;;;29.80;99.90;;;;;;5057525;28;20200;-67
2021/07/21 08:06:34;;;;;;;10.93;7.97;;;30.10;99.90;;;;;;5060414;28;20205;-67
2021/07/21 08:09:03;;;;;;;9.48;7.88;;;30.50;99.90;;;;;;5063553;28;20219;-67
2021/07/21 08:11:32;;;;;;;10.05;7.32;;;30.20;99.90;;;;;;5063277;28;20221;-67
2021/07/21 08:14:01;;;;;;;10.90;7.90;;;29.80;99.90;;;;;;5065073;28;20540;-67
2021/07/21 08:16:30;;;;;;;9.93;7.30;;;31.00;99.90;;;;;;5062173;28;20893;-67
2021/07/21 08:18:58;;;;;;;8.38;6.95;;;30.80;99.90;;;;;;5057202;28;20621;-67
2021/07/21 08:21:27;;;;;;;8.95;7.00;;;30.60;99.90;;;;;;5069458;28;20228;-67
2021/07/21 08:23:55;;;;;;;8.43;7.30;;;31.00;98.90;;;;;;5065547;28;20206;-67
2021/07/21 08:26:23;;;;;;;8.00;7.07;;;31.60;99.90;;;;;;5062965;28;20192;-67
2021/07/21 08:28:51;;;;;;;9.80;6.60;;;32.20;99.80;;;;;;5058803;28;20522;-67
2021/07/21 08:31:21;;;;;;;8.90;7.63;;;32.40;98.90;;;;;;5063428;28;20208;-67
2021/07/21 08:33:50;;;;;;;10.48;8.50;;;32.20;97.70;;;;;;5067213;28;20734;-67
2021/07/21 08:36:18;;;;;;;10.45;6.95;;;32.10;97.40;;;;;;5063343;28;20220;-67
2021/07/21 08:38:46;;;;;;;10.48;7.70;;;32.30;97.60;;;;;;5062965;28;20200;-67
2021/07/21 08:41:14;;;;;;;9.07;6.82;;;32.30;96.30;;;;;;5062089;28;20283;-66
2021/07/21 08:43:43;;;;;;;8.07;7.07;;;31.80;96.90;;;;;;5063715;28;20586;-68
2021/07/21 08:46:11;;;;;;;9.18;7.72;;;32.40;96.80;;;;;;5061254;28;20220;-67
2021/07/21 08:48:41;;;;;;;7.95;7.15;;;32.50;97.30;;;;;;5062516;28;20187;-68
2021/07/21 08:51:12;;;;;;;8.27;7.43;;;32.70;97.10;;;;;;5065299;28;20192;-67
2021/07/21 08:53:41;;;;;;;8.32;7.30;;;33.30;96.70;;;;;;5063053;28;20200;-67
2021/07/21 08:56:10;;;;;;;8.73;7.30;;;33.40;94.80;;;;;;5060373;28;20289;-67
2021/07/21 08:58:39;;;;;;;9.85;7.00;;;33.10;95.70;;;;;;5067561;28;20184;-67
2021/07/21 09:01:07;;;;;;;9.57;7.43;;;33.00;94.80;;;;;;5063759;28;20562;-68
2021/07/21 09:03:36;;;;;;;8.10;6.90;;;33.10;95.90;;;;;;5061695;28;20193;-68
2021/07/21 09:06:07;;;;;;;8.77;7.50;;;33.10;93.40;;;;;;5044056;28;20259;-68
2021/07/21 09:08:35;;;;;;;8.23;7.40;;;33.00;93.80;;;;;;5064912;28;20555;-67
2021/07/21 09:11:04;;;;;;;8.85;7.13;;;33.10;94.30;;;;;;5064426;28;20602;-67
2021/07/21 09:13:34;;;;;;;9.02;8.07;;;33.10;94.30;;;;;;5061830;28;20271;-67
2021/07/21 09:16:04;;;;;;;8.45;7.32;;;32.90;93.70;;;;;;5060483;28;20216;-67
2021/07/21 09:18:47;;;;;;;11.95;7.60;;;32.60;94.90;;;;;;5063223;28;20189;-67
2021/07/21 09:21:19;;;;;;;8.35;6.82;;;32.70;94.20;;;;;;5059849;28;20266;-67
2021/07/21 09:23:49;;;;;;;7.93;7.10;;;33.10;95.50;;;;;;5062521;28;20227;-68
2021/07/21 09:26:20;;;;;;;10.02;7.80;;;33.70;95.00;;;;;;5053358;28;21622;-67
2021/07/21 09:28:50;;;;;;;10.30;8.50;;;33.40;94.00;;;;;;5060677;28;20196;-67
2021/07/21 09:31:29;;;;;;;8.73;7.82;;;33.40;93.30;;;;;;5059595;28;20846;-67
2021/07/21 09:33:59;;;;;;;10.57;7.68;;;33.40;93.30;;;;;;5063545;28;20556;-67
2021/07/21 09:36:28;;;;;;;8.82;7.95;;;33.60;94.00;;;;;;5064142;28;20579;-67
2021/07/21 09:39:02;;;;;;;10.00;7.53;;;33.50;92.60;;;;;;5063396;28;20292;-68
2021/07/21 09:41:31;;;;;;;10.57;8.15;;;33.40;93.20;;;;;;5059211;28;20197;-67
2021/07/21 09:44:04;;;;;;;9.02;7.80;;;33.50;93.70;;;;;;5061595;28;20200;-67
2021/07/21 09:46:34;;;;;;;9.02;7.90;;;33.40;93.50;;;;;;5057811;28;20200;-68
2021/07/21 09:49:02;;;;;;;10.05;7.72;;;33.40;93.30;;;;;;5066918;28;20184;-67
2021/07/21 09:51:34;;;;;;;10.63;7.75;;;33.50;92.60;;;;;;5062809;28;20854;-67
2021/07/21 09:54:15;;;;;;;8.70;6.82;;;33.50;93.90;;;;;;5064801;28;20184;-67
2021/07/21 09:56:44;;;;;;;8.57;7.65;;;34.00;94.00;;;;;;5064889;28;20248;-68
2021/07/21 09:59:20;;;;;;;11.70;8.00;;;34.10;93.50;;;;;;5062568;28;20219;-67
2021/07/21 10:01:49;;;;;;;9.52;7.68;;;34.10;92.10;;;;;;5060371;28;20734;-67
2021/07/21 10:04:31;;;;;;;9.00;7.57;;;33.60;92.00;;;;;;5064100;28;20246;-67
2021/07/21 10:07:13;;;;;;;9.52;7.85;;;33.50;93.00;;;;;;5054857;28;21242;-67
2021/07/21 10:09:42;;;;;;;9.80;8.00;;;33.60;94.00;;;;;;5061168;28;20287;-67
2021/07/21 10:12:17;;;;;;;11.40;8.32;;;33.60;91.50;;;;;;5064603;28;20192;-67
2021/07/21 10:14:57;;;;;;;8.93;8.02;;;32.90;91.60;;;;;;5058659;28;20200;-67
2021/07/21 10:17:26;;;;;;;9.30;7.28;;;32.60;92.20;;;;;;5060950;28;20307;-68
2021/07/21 10:19:54;;;;;;;8.90;8.00;;;32.80;93.80;;;;;;5060319;28;20732;-68
2021/07/21 10:22:25;;;;;;;12.00;7.97;;;32.90;93.00;;;;;;5066869;28;20291;-67
2021/07/21 10:24:54;;;;;;;8.65;7.75;;;33.30;93.20;;;;;;5063569;28;20201;-68
2021/07/21 10:27:22;;;;;;;9.10;7.95;;;33.20;91.20;;;;;;5063612;28;20200;-68
2021/07/21 10:29:53;;;;;;;9.23;8.23;;;33.40;91.40;;;;;;5067174;28;20200;-68
2021/07/21 10:32:22;;;;;;;9.27;7.65;;;33.10;91.60;;;;;;5065703;28;20294;-68
2021/07/21 10:34:51;;;;;;;10.65;8.73;;;33.10;92.30;;;;;;5063372;28;20228;-67
2021/07/21 10:37:23;;;;;;;10.43;7.88;;;33.20;91.80;;;;;;5061860;28;20710;-68
2021/07/21 10:39:58;;;;;;;12.10;7.70;;;33.20;92.00;;;;;;5062538;28;20641;-68
2021/07/21 10:42:28;;;;;;;9.77;8.05;;;32.90;93.30;;;;;;5066071;28;20191;-68
2021/07/21 10:44:57;;;;;;;10.93;8.65;;;33.10;94.40;;;;;;5060670;28;20203;-67
2021/07/21 10:47:31;;;;;;;10.07;8.05;;;32.70;91.30;;;;;;5061770;28;20192;-67
2021/07/21 10:50:08;;;;;;;10.45;7.32;;;32.50;93.30;;;;;;5062090;28;20283;-68
2021/07/21 10:55:28;;;;;;;8.45;7.65;;;32.50;92.10;;;;;;5057925;28;20293;-67
2021/07/21 11:01:26;;;;;;;9.45;8.05;;;31.40;92.70;;;;;;5060279;28;20207;-67
2021/07/21 11:04:02;;;;;;;10.68;8.70;;;32.00;94.30;;;;;;5060906;28;20209;-68
2021/07/21 11:06:37;;;;;;;9.75;8.10;;;32.30;94.20;;;;;;5062314;28;20278;-67
2021/07/21 11:09:25;;;;;;;11.00;8.68;;;32.60;93.20;;;;;;5063613;28;20604;-67
2021/07/21 11:11:57;;;;;;;10.30;7.38;;;32.40;93.20;;;;;;5063534;28;20328;-68
2021/07/21 11:14:27;;;;;;;8.25;7.35;;;32.10;91.80;;;;;;5062641;28;20205;-68
2021/07/21 11:16:57;;;;;;;10.50;7.97;;;32.10;94.50;;;;;;5063712;28;20226;-67
2021/07/21 11:19:28;;;;;;;11.25;8.15;;;32.10;94.40;;;;;;5057248;28;20198;-66
2021/07/21 11:21:58;;;;;;;10.20;8.10;;;32.00;92.30;;;;;;5060926;28;20681;-67
2021/07/21 11:24:30;;;;;;;9.25;7.82;;;32.00;93.40;;;;;;5054904;28;20217;-67
2021/07/21 11:26:58;;;;;;;8.32;7.43;;;32.10;94.70;;;;;;5056994;28;20717;-67
2021/07/21 11:29:48;;;;;;;7.85;7.13;;;32.00;94.00;;;;;;5055109;28;20196;-67
2021/07/21 11:32:31;;;;;;;8.88;7.63;;;32.00;92.60;;;;;;5050720;28;20189;-66
2021/07/21 11:35:00;;;;;;;8.52;7.47;;;31.80;93.50;;;;;;5056038;28;20228;-67
2021/07/21 11:37:35;;;;;;;9.23;7.55;;;31.70;92.80;;;;;;5060412;28;20228;-66
2021/07/21 11:40:18;;;;;;;9.18;7.40;;;31.30;92.20;;;;;;5049939;28;20222;-67
2021/07/21 11:42:47;;;;;;;8.85;7.43;;;30.90;94.00;;;;;;5060749;28;20202;-66
2021/07/21 11:45:21;;;;;;;10.20;7.63;;;30.90;94.10;;;;;;5058857;28;20200;-67
2021/07/21 11:47:56;;;;;;;8.10;7.30;;;30.90;93.80;;;;;;5061128;28;20245;-67
2021/07/21 11:50:26;;;;;;;8.75;7.38;;;31.00;96.60;;;;;;5059485;28;20306;-66
2021/07/21 11:52:56;;;;;;;10.48;7.53;;;31.00;93.60;;;;;;5058778;28;20199;-67
2021/07/21 11:55:28;;;;;;;8.43;7.63;;;30.70;94.50;;;;;;5056728;28;20200;-67
2021/07/21 11:57:57;;;;;;;11.73;7.78;;;30.60;94.70;;;;;;5055991;28;20303;-66
2021/07/21 12:00:26;;;;;;;8.90;7.88;;;30.50;95.30;;;;;;5059354;28;20294;-67
2021/07/21 12:03:01;;;;;;;8.10;7.15;;;30.50;96.20;;;;;;5061354;28;20686;-67
2021/07/21 12:05:31;;;;;;;7.90;7.10;;;30.70;96.00;;;;;;5059606;28;20193;-66
2021/07/21 12:08:20;;;;;;;9.77;8.00;;;30.60;94.70;;;;;;5057623;28;20410;-67
2021/07/21 12:10:50;;;;;;;11.18;7.60;;;30.30;94.50;;;;;;5053072;28;20194;-67
2021/07/21 12:13:23;;;;;;;10.48;7.00;;;30.20;95.40;;;;;;5054284;28;20261;-68
2021/07/21 12:15:59;;;;;;;9.15;7.82;;;30.00;94.10;;;;;;5051564;28;20187;-65
2021/07/21 12:18:28;;;;;;;9.00;7.80;;;29.90;96.20;;;;;;5062769;28;20215;-67
2021/07/21 12:21:07;;;;;;;7.82;7.03;;;29.90;95.50;;;;;;5064532;28;20232;-67
2021/07/21 12:23:37;;;;;;;10.18;7.57;;;29.80;94.80;;;;;;5062650;28;20282;-67
2021/07/21 12:26:10;;;;;;;9.23;7.15;;;29.50;94.10;;;;;;5058178;28;20202;-69
2021/07/21 12:28:39;;;;;;;7.65;6.88;;;29.20;93.90;;;;;;5059057;28;20192;-71
2021/07/21 12:31:07;;;;;;;9.02;7.13;;;29.00;94.70;;;;;;5062127;28;20415;-71
2021/07/21 12:33:36;;;;;;;9.35;7.15;;;29.00;94.30;;;;;;5063199;28;20199;-71
2021/07/21 12:36:08;;;;;;;10.37;7.40;;;28.90;96.40;;;;;;5059403;28;20327;-70
2021/07/21 12:38:40;;;;;;;8.90;7.80;;;29.10;96.40;;;;;;5058276;28;20266;-71
2021/07/21 12:41:11;;;;;;;10.73;7.73;;;29.10;96.10;;;;;;5057446;28;20181;-70
2021/07/21 12:43:40;;;;;;;9.10;7.53;;;29.00;94.70;;;;;;5054857;28;20223;-71
2021/07/21 12:46:18;;;;;;;9.37;7.40;;;28.80;95.20;;;;;;5062115;28;20295;-71
2021/07/21 12:48:47;;;;;;;9.00;7.60;;;28.50;95.60;;;;;;5062748;28;20263;-71
2021/07/21 12:51:16;;;;;;;8.30;7.50;;;28.60;98.40;;;;;;5056627;28;20324;-71
2021/07/21 12:53:46;;;;;;;9.63;7.20;;;28.70;95.80;;;;;;5063792;28;20220;-71
2021/07/21 12:56:16;;;;;;;8.33;7.10;;;28.80;97.50;;;;;;5064341;28;20275;-71
2021/07/21 12:58:45;;;;;;;9.30;7.53;;;28.80;95.50;;;;;;5065215;28;20645;-71